createdAt,value
2023-06-27T00:02:04.832Z,18.88
2023-06-27T00:04:37.807Z,18.64
2023-06-27T00:07:07.366Z,18.59
2023-06-27T00:09:34.508Z,18.65
2023-06-27T00:12:03.268Z,18.61
2023-06-27T00:14:38.103Z,18.86
2023-06-27T00:17:06.160Z,18.63
2023-06-27T00:19:32.851Z,18.51
2023-06-27T00:21:59.701Z,18.37
2023-06-27T00:24:26.890Z,18.62
2023-06-27T00:26:56.805Z,18.61
2023-06-27T00:29:24.049Z,18.69
2023-06-27T00:31:52.854Z,18.55
2023-06-27T00:34:19.860Z,18.43
2023-06-27T00:36:46.553Z,18.46
2023-06-27T00:39:13.380Z,18.42
2023-06-27T00:41:40.045Z,18.32
2023-06-27T00:44:07.767Z,18.25
2023-06-27T00:46:38.744Z,18.17
2023-06-27T00:49:09.892Z,18.07
2023-06-27T00:51:37.221Z,18.18
2023-06-27T00:54:04.082Z,18.00
2023-06-27T00:56:30.908Z,17.99
2023-06-27T00:59:00.314Z,18.02
2023-06-27T01:01:33.531Z,18.16
2023-06-27T01:04:00.495Z,18.01
2023-06-27T01:06:40.077Z,18.01
2023-06-27T01:09:09.721Z,17.75
2023-06-27T01:12:02.694Z,17.75
2023-06-27T01:14:30.903Z,17.56
2023-06-27T01:16:58.327Z,17.41
2023-06-27T01:19:27.090Z,17.39
2023-06-27T01:21:57.667Z,17.41
2023-06-27T01:24:28.871Z,17.33
2023-06-27T01:26:55.693Z,17.50
2023-06-27T01:29:22.429Z,17.26
2023-06-27T01:32:11.960Z,17.16
2023-06-27T01:34:45.035Z,17.05
2023-06-27T01:37:17.686Z,17.20
2023-06-27T01:39:54.643Z,17.06
2023-06-27T01:42:24.627Z,17.07
2023-06-27T01:44:52.110Z,17.04
2023-06-27T01:47:22.007Z,17.07
2023-06-27T01:49:49.038Z,16.75
2023-06-27T01:52:17.722Z,16.87
2023-06-27T01:54:49.823Z,16.97
2023-06-27T01:57:16.719Z,16.97
2023-06-27T01:59:45.531Z,17.07
2023-06-27T02:02:12.870Z,16.89
2023-06-27T02:04:40.351Z,16.95
2023-06-27T02:07:07.217Z,17.10
2023-06-27T02:09:36.996Z,17.13
2023-06-27T02:12:05.703Z,17.08
2023-06-27T02:14:32.712Z,16.90
2023-06-27T02:16:59.549Z,16.94
2023-06-27T02:19:26.274Z,17.01
2023-06-27T02:21:53.540Z,17.05
2023-06-27T02:24:20.469Z,16.90
2023-06-27T02:26:47.593Z,16.99
2023-06-27T02:29:14.370Z,17.13
2023-06-27T02:31:43.370Z,17.05
2023-06-27T02:34:12.339Z,17.00
2023-06-27T02:36:39.052Z,16.89
2023-06-27T02:39:05.808Z,16.86
2023-06-27T02:41:33.487Z,16.65
2023-06-27T02:44:03.066Z,16.57
2023-06-27T02:46:29.941Z,16.59
2023-06-27T02:48:56.715Z,16.57
2023-06-27T02:51:25.655Z,16.47
2023-06-27T02:53:52.322Z,16.52
2023-06-27T02:56:19.473Z,16.61
2023-06-27T02:58:47.626Z,16.54
2023-06-27T03:01:15.805Z,16.44
2023-06-27T03:03:47.012Z,16.44
2023-06-27T03:06:15.224Z,16.55
2023-06-27T03:08:42.213Z,16.29
2023-06-27T03:11:09.096Z,16.42
2023-06-27T03:13:36.279Z,16.34
2023-06-27T03:16:06.761Z,16.29
2023-06-27T03:18:34.336Z,16.50
2023-06-27T03:21:03.898Z,16.44
2023-06-27T03:23:31.895Z,16.36
2023-06-27T03:25:58.860Z,16.50
2023-06-27T03:28:25.550Z,16.26
2023-06-27T03:30:55.227Z,16.40
2023-06-27T03:33:22.387Z,16.34
2023-06-27T03:35:51.556Z,16.37
2023-06-27T03:38:18.363Z,16.32
2023-06-27T03:40:45.560Z,16.18
2023-06-27T03:43:15.257Z,16.33
2023-06-27T03:45:43.588Z,16.32
2023-06-27T03:48:10.633Z,16.36
2023-06-27T03:50:38.593Z,16.23
2023-06-27T03:53:09.360Z,16.35
2023-06-27T03:55:38.877Z,16.31
2023-06-27T03:58:06.055Z,16.44
2023-06-27T04:00:32.772Z,16.69
2023-06-27T04:02:59.954Z,16.59
2023-06-27T04:05:27.556Z,16.52
2023-06-27T04:07:54.380Z,16.57
2023-06-27T04:10:28.845Z,16.69
2023-06-27T04:12:55.737Z,16.61
2023-06-27T04:15:22.392Z,16.45
2023-06-27T04:17:49.221Z,16.66
2023-06-27T04:20:21.970Z,16.72
2023-06-27T04:22:48.654Z,16.79
2023-06-27T04:25:16.546Z,16.86
2023-06-27T04:27:46.859Z,16.86
2023-06-27T04:30:14.048Z,16.72
2023-06-27T04:32:42.547Z,16.66
2023-06-27T04:35:11.116Z,16.79
2023-06-27T04:37:41.068Z,16.73
2023-06-27T04:40:10.448Z,16.93
2023-06-27T04:42:37.200Z,16.98
2023-06-27T04:45:04.087Z,16.88
2023-06-27T04:47:30.876Z,16.82
2023-06-27T04:49:57.674Z,17.00
2023-06-27T04:52:24.250Z,16.89
2023-06-27T04:54:53.228Z,16.93
2023-06-27T04:57:20.708Z,17.01
2023-06-27T04:59:48.397Z,17.08
2023-06-27T05:02:15.029Z,17.14
2023-06-27T05:04:41.921Z,17.32
2023-06-27T05:07:08.613Z,17.28
2023-06-27T05:09:36.464Z,17.34
2023-06-27T05:12:03.236Z,17.48
2023-06-27T05:14:29.990Z,17.36
2023-06-27T05:16:56.859Z,17.52
2023-06-27T05:19:23.665Z,17.55
2023-06-27T05:21:50.408Z,17.48
2023-06-27T05:24:19.485Z,17.60
2023-06-27T05:26:46.204Z,17.62
2023-06-27T05:29:12.875Z,17.48
2023-06-27T05:31:46.268Z,17.57
2023-06-27T05:34:14.054Z,17.55
2023-06-27T05:36:40.808Z,17.63
2023-06-27T05:39:07.586Z,17.54
2023-06-27T05:41:34.335Z,17.82
2023-06-27T05:44:01.047Z,18.15
2023-06-27T05:46:27.749Z,18.03
2023-06-27T05:48:54.440Z,17.99
2023-06-27T05:51:23.302Z,18.00
2023-06-27T05:53:49.991Z,18.17
2023-06-27T05:56:16.667Z,18.31
2023-06-27T05:58:43.488Z,18.43
2023-06-27T06:01:10.554Z,18.49
2023-06-27T06:03:39.890Z,18.60
2023-06-27T06:06:06.749Z,18.58
2023-06-27T06:08:33.472Z,18.90
2023-06-27T06:11:00.277Z,18.89
2023-06-27T06:13:27.033Z,18.87
2023-06-27T06:15:53.817Z,19.15
2023-06-27T06:18:20.537Z,19.07
2023-06-27T06:20:47.236Z,18.68
2023-06-27T06:23:13.933Z,18.53
2023-06-27T06:25:40.894Z,18.92
2023-06-27T06:28:10.890Z,19.06
2023-06-27T06:30:37.708Z,19.10
2023-06-27T06:33:04.428Z,19.29
2023-06-27T06:35:31.134Z,19.05
2023-06-27T06:38:00.053Z,19.09
2023-06-27T06:40:33.024Z,19.17
2023-06-27T06:42:59.701Z,19.17
2023-06-27T06:45:26.410Z,19.25
2023-06-27T06:47:53.792Z,19.24
2023-06-27T06:50:20.596Z,19.45
2023-06-27T06:52:47.408Z,19.38
2023-06-27T06:55:14.128Z,19.53
2023-06-27T06:57:43.150Z,19.57
2023-06-27T07:00:10.069Z,19.43
2023-06-27T07:02:36.931Z,19.48
2023-06-27T07:05:03.712Z,19.65
2023-06-27T07:07:30.568Z,19.73
2023-06-27T07:09:57.334Z,19.81
2023-06-27T07:12:24.106Z,19.99
2023-06-27T07:14:52.814Z,19.91
2023-06-27T07:17:19.623Z,20.21
2023-06-27T07:19:46.346Z,20.09
2023-06-27T07:22:13.020Z,20.00
2023-06-27T07:24:39.671Z,20.04
2023-06-27T07:27:08.049Z,19.99
2023-06-27T07:29:34.654Z,20.14
2023-06-27T07:32:01.820Z,20.45
2023-06-27T07:34:28.620Z,19.93
2023-06-27T07:36:55.411Z,19.89
2023-06-27T07:41:48.856Z,19.87
2023-06-27T07:44:15.567Z,20.28
2023-06-27T07:46:45.435Z,20.47
2023-06-27T07:49:12.202Z,20.60
2023-06-27T07:51:38.864Z,20.69
2023-06-27T07:54:05.582Z,20.35
2023-06-27T07:56:32.231Z,20.45
2023-06-27T07:59:00.256Z,20.37
2023-06-27T08:01:29.302Z,20.27
2023-06-27T08:03:56.198Z,20.32
2023-06-27T08:06:23.147Z,20.78
2023-06-27T08:08:49.914Z,20.93
2023-06-27T08:11:16.629Z,21.04
2023-06-27T08:13:43.300Z,21.17
2023-06-27T08:16:10.655Z,21.33
2023-06-27T08:18:37.495Z,21.28
2023-06-27T08:21:05.569Z,21.28
2023-06-27T08:23:32.564Z,21.61
2023-06-27T08:25:59.434Z,21.28
2023-06-27T08:28:26.245Z,21.01
2023-06-27T08:30:52.993Z,21.19
2023-06-27T08:33:19.859Z,21.68
2023-06-27T08:35:46.632Z,21.73
2023-06-27T08:38:13.660Z,21.53
2023-06-27T08:40:42.281Z,21.58
2023-06-27T08:43:11.836Z,21.47
2023-06-27T08:45:39.188Z,20.97
2023-06-27T08:48:10.051Z,21.09
2023-06-27T08:50:39.723Z,21.30
2023-06-27T08:53:08.506Z,21.25
2023-06-27T08:55:50.560Z,21.19
2023-06-27T08:58:17.469Z,21.02
2023-06-27T09:00:47.680Z,21.12
2023-06-27T09:03:15.332Z,21.29
2023-06-27T09:05:45.685Z,21.50
2023-06-27T09:08:13.380Z,21.79
2023-06-27T09:10:41.096Z,21.60
2023-06-27T09:13:09.215Z,21.50
2023-06-27T09:15:35.936Z,21.62
2023-06-27T09:18:02.694Z,21.63
2023-06-27T09:20:29.474Z,22.11
2023-06-27T09:23:00.827Z,22.37
2023-06-27T09:25:32.154Z,21.98
2023-06-27T09:28:01.890Z,21.72
2023-06-27T09:30:31.649Z,21.51
2023-06-27T09:32:59.514Z,21.24
2023-06-27T09:35:51.847Z,21.47
2023-06-27T09:40:50.280Z,22.01
2023-06-27T09:43:21.006Z,22.15
2023-06-27T09:45:57.272Z,21.81
2023-06-27T09:48:24.016Z,22.27
2023-06-27T09:50:52.700Z,22.53
2023-06-27T09:53:19.412Z,22.08
2023-06-27T09:55:47.574Z,21.72
2023-06-27T09:58:18.966Z,21.71
2023-06-27T10:00:49.486Z,21.80
2023-06-27T10:03:20.873Z,22.24
2023-06-27T10:06:08.073Z,22.49
2023-06-27T10:08:38.626Z,22.92
2023-06-27T10:11:05.284Z,23.00
2023-06-27T10:13:32.016Z,22.96
2023-06-27T10:15:58.906Z,22.82
2023-06-27T10:18:26.339Z,22.53
2023-06-27T10:20:56.263Z,22.17
2023-06-27T10:23:23.344Z,22.50
2023-06-27T10:25:52.618Z,22.98
2023-06-27T10:28:20.838Z,23.28
2023-06-27T10:30:50.735Z,23.45
2023-06-27T10:33:33.087Z,23.74
2023-06-27T10:36:00.604Z,23.74
2023-06-27T10:38:37.729Z,23.63
2023-06-27T10:41:06.755Z,23.86
2023-06-27T10:43:39.388Z,23.97
2023-06-27T10:46:32.810Z,24.25
2023-06-27T10:49:06.218Z,24.27
2023-06-27T10:51:39.854Z,25.25
2023-06-27T10:54:09.957Z,26.16
2023-06-27T10:57:07.021Z,26.67
2023-06-27T10:59:35.291Z,27.85
2023-06-27T11:02:04.078Z,26.97
2023-06-27T11:04:44.525Z,25.68
2023-06-27T11:07:31.415Z,26.16
2023-06-27T11:09:58.242Z,26.38
2023-06-27T11:12:34.418Z,26.83
2023-06-27T11:15:02.430Z,26.01
2023-06-27T11:17:29.643Z,25.93
2023-06-27T11:20:05.533Z,25.00
2023-06-27T11:22:35.285Z,24.02
2023-06-27T11:25:14.300Z,23.00
2023-06-27T11:27:41.037Z,23.10
2023-06-27T11:30:07.934Z,22.99
2023-06-27T11:32:36.786Z,22.94
2023-06-27T11:35:09.143Z,23.44
2023-06-27T11:37:35.863Z,25.61
2023-06-27T11:40:08.143Z,27.09
2023-06-27T11:42:36.118Z,28.46
2023-06-27T11:45:03.812Z,28.99
2023-06-27T11:47:30.527Z,27.25
2023-06-27T11:50:17.458Z,25.21
2023-06-27T11:52:44.210Z,23.87
2023-06-27T11:55:10.912Z,22.94
2023-06-27T11:57:44.472Z,21.75
2023-06-27T12:00:31.210Z,20.96
2023-06-27T12:03:04.711Z,20.52
2023-06-27T12:05:34.842Z,19.84
2023-06-27T12:08:54.232Z,19.34
2023-06-27T12:11:40.743Z,19.56
2023-06-27T12:14:39.770Z,19.25
2023-06-27T12:20:09.699Z,18.71
2023-06-27T12:23:04.969Z,18.59
2023-06-27T12:26:33.334Z,18.55
2023-06-27T12:31:55.158Z,18.91
2023-06-27T12:38:45.725Z,19.43
2023-06-27T12:41:15.460Z,21.77
2023-06-27T12:50:44.476Z,25.92
2023-06-27T12:56:58.058Z,27.34
2023-06-27T12:59:31.341Z,27.83
2023-06-27T13:02:26.138Z,26.85
2023-06-27T13:04:52.978Z,25.38
2023-06-27T13:07:21.012Z,25.16
2023-06-27T13:10:03.449Z,27.13
2023-06-27T13:12:42.327Z,27.98
2023-06-27T13:15:10.451Z,27.84
2023-06-27T13:17:44.126Z,27.44
2023-06-27T13:20:14.375Z,27.78
2023-06-27T13:22:41.290Z,27.15
2023-06-27T13:25:11.253Z,26.99
2023-06-27T13:27:38.011Z,26.58
2023-06-27T13:30:06.334Z,26.13
2023-06-27T13:32:33.432Z,26.78
2023-06-27T13:35:04.445Z,26.44
2023-06-27T13:37:31.249Z,25.68
2023-06-27T13:40:00.135Z,25.39
2023-06-27T13:42:30.163Z,25.19
2023-06-27T13:45:03.979Z,24.75
2023-06-27T13:47:34.231Z,24.03
2023-06-27T13:50:00.986Z,23.69
2023-06-27T13:52:27.681Z,24.64
2023-06-27T13:54:55.598Z,24.40
2023-06-27T13:57:28.316Z,23.57
2023-06-27T13:59:55.128Z,23.37
2023-06-27T14:02:22.953Z,23.34
2023-06-27T14:05:08.625Z,22.98
2023-06-27T14:07:37.554Z,22.77
2023-06-27T14:10:04.527Z,22.79
2023-06-27T14:12:31.264Z,22.70
2023-06-27T14:14:58.873Z,21.87
2023-06-27T14:17:25.596Z,20.94
2023-06-27T14:19:52.242Z,20.52
2023-06-27T14:22:19.063Z,19.74
2023-06-27T14:24:48.442Z,19.49
2023-06-27T14:27:22.902Z,19.13
2023-06-27T14:29:49.579Z,19.32
2023-06-27T14:32:16.267Z,19.37
2023-06-27T14:34:42.912Z,19.53
2023-06-27T14:37:09.587Z,20.13
2023-06-27T14:39:36.368Z,20.90
2023-06-27T14:42:03.060Z,21.81
2023-06-27T14:44:31.414Z,22.86
2023-06-27T14:47:01.436Z,23.70
2023-06-27T14:49:28.259Z,23.79
2023-06-27T14:51:54.891Z,24.25
2023-06-27T14:54:21.945Z,24.79
2023-06-27T14:56:48.760Z,24.76
2023-06-27T14:59:31.116Z,24.77
2023-06-27T15:02:00.079Z,25.13
2023-06-27T15:04:26.943Z,25.01
2023-06-27T15:06:56.729Z,25.31
2023-06-27T15:09:23.700Z,25.10
2023-06-27T15:11:50.935Z,25.27
2023-06-27T15:14:20.074Z,24.97
2023-06-27T15:16:46.818Z,24.68
2023-06-27T15:19:13.576Z,24.31
2023-06-27T15:21:40.603Z,23.98
2023-06-27T15:24:07.941Z,23.27
2023-06-27T15:26:34.769Z,23.28
2023-06-27T15:29:01.818Z,23.17
2023-06-27T15:31:34.679Z,22.66
2023-06-27T15:34:02.477Z,22.45
2023-06-27T15:36:31.408Z,22.28
2023-06-27T15:39:09.679Z,22.16
2023-06-27T15:42:17.864Z,22.29
2023-06-27T15:45:19.745Z,21.69
2023-06-27T15:47:46.610Z,21.61
2023-06-27T15:53:38.156Z,20.89
2023-06-27T15:56:30.866Z,21.47
2023-06-27T15:58:58.508Z,22.15
2023-06-27T16:08:12.986Z,22.61
2023-06-27T16:10:58.313Z,22.46
2023-06-27T16:17:21.726Z,22.61
2023-06-27T16:27:20.908Z,22.54
2023-06-27T16:27:25.767Z,22.53
2023-06-27T16:30:21.061Z,22.62
2023-06-27T16:33:14.175Z,22.49
2023-06-27T16:35:40.934Z,22.23
2023-06-27T16:38:22.508Z,21.71
2023-06-27T16:41:20.837Z,22.00
2023-06-27T16:43:50.198Z,21.99
2023-06-27T16:46:31.044Z,21.92
2023-06-27T16:48:57.720Z,21.81
2023-06-27T16:51:24.422Z,21.16
2023-06-27T16:53:51.160Z,20.89
2023-06-27T16:56:17.862Z,20.84
2023-06-27T16:58:44.617Z,20.94
2023-06-27T17:01:11.415Z,21.09
2023-06-27T17:03:38.158Z,20.90
2023-06-27T17:06:04.849Z,20.80
2023-06-27T17:08:31.514Z,20.87
2023-06-27T17:11:00.394Z,20.62
2023-06-27T17:13:27.780Z,20.31
2023-06-27T17:15:54.854Z,20.42
2023-06-27T17:18:21.617Z,20.35
2023-06-27T17:20:48.283Z,20.32
2023-06-27T17:23:17.082Z,20.00
2023-06-27T17:25:44.000Z,20.46
2023-06-27T17:28:12.065Z,20.19
2023-06-27T17:30:38.920Z,20.29
2023-06-27T17:33:05.702Z,20.23
2023-06-27T17:35:33.417Z,19.88
2023-06-27T17:38:04.338Z,19.07
2023-06-27T17:40:31.168Z,17.38
2023-06-27T17:42:57.880Z,17.25
2023-06-27T17:45:24.622Z,17.27
2023-06-27T17:47:56.965Z,17.32
2023-06-27T17:50:24.472Z,17.31
2023-06-27T17:52:51.311Z,17.29
2023-06-27T17:55:18.579Z,17.50
2023-06-27T17:57:45.433Z,17.85
2023-06-27T18:00:12.567Z,18.41
2023-06-27T18:02:39.574Z,18.55
2023-06-27T18:05:06.787Z,18.66
2023-06-27T18:07:38.426Z,18.61
2023-06-27T18:10:07.029Z,18.77
2023-06-27T18:12:33.782Z,18.84
2023-06-27T18:15:01.151Z,18.67
2023-06-27T18:17:27.944Z,18.55
2023-06-27T18:19:59.512Z,18.52
2023-06-27T18:22:26.881Z,18.47
2023-06-27T18:24:53.995Z,18.52
2023-06-27T18:27:21.084Z,18.33
2023-06-27T18:29:49.412Z,18.61
2023-06-27T18:32:16.807Z,18.69
2023-06-27T18:34:43.482Z,18.89
2023-06-27T18:37:15.676Z,18.57
2023-06-27T18:39:42.424Z,18.74
2023-06-27T18:42:09.118Z,18.77
2023-06-27T18:44:35.963Z,18.65
2023-06-27T18:47:02.713Z,18.74
2023-06-27T18:49:32.887Z,18.91
2023-06-27T18:52:01.662Z,18.86
2023-06-27T18:54:30.295Z,18.83
2023-06-27T18:56:57.020Z,18.62
2023-06-27T18:59:23.845Z,18.10
2023-06-27T19:01:55.909Z,17.90
2023-06-27T19:04:22.866Z,18.43
2023-06-27T19:06:50.770Z,18.58
2023-06-27T19:09:20.338Z,18.41
2023-06-27T19:11:47.332Z,18.67
2023-06-27T19:14:14.146Z,18.43
2023-06-27T19:16:41.064Z,18.56
2023-06-27T19:19:10.776Z,18.51
2023-06-27T19:21:39.853Z,18.08
2023-06-27T19:24:08.956Z,17.94
2023-06-27T19:26:35.670Z,18.14
2023-06-27T19:29:03.209Z,18.36
2023-06-27T19:31:30.066Z,17.92
2023-06-27T19:33:56.859Z,18.00
2023-06-27T19:36:23.871Z,18.18
2023-06-27T19:38:50.505Z,18.12
2023-06-27T19:41:18.677Z,18.29
2023-06-27T19:46:25.930Z,18.00
2023-06-27T19:48:52.547Z,18.00
2023-06-27T19:51:19.308Z,17.95
2023-06-27T19:53:46.364Z,17.91
2023-06-27T19:56:13.863Z,17.88
2023-06-27T19:58:40.457Z,17.86
2023-06-27T20:01:07.249Z,17.47
2023-06-27T20:03:33.873Z,17.31
2023-06-27T20:06:00.621Z,17.31
2023-06-27T20:08:27.295Z,17.24
2023-06-27T20:10:53.955Z,17.56
2023-06-27T20:13:20.609Z,17.63
2023-06-27T20:15:47.422Z,17.60
2023-06-27T20:18:14.163Z,17.66
2023-06-27T20:20:41.253Z,17.42
2023-06-27T20:23:08.218Z,17.58
2023-06-27T20:25:34.933Z,17.41
2023-06-27T20:28:01.564Z,17.58
2023-06-27T20:30:29.836Z,17.56
2023-06-27T20:32:56.525Z,17.37
2023-06-27T20:35:23.320Z,17.40
2023-06-27T20:37:50.039Z,17.54
2023-06-27T20:40:16.821Z,17.40
2023-06-27T20:42:43.485Z,17.51
2023-06-27T20:45:10.552Z,17.43
2023-06-27T20:47:37.161Z,17.62
2023-06-27T20:50:06.690Z,17.42
2023-06-27T20:52:33.400Z,17.58
2023-06-27T20:55:00.135Z,17.35
2023-06-27T20:57:26.777Z,17.35
2023-06-27T20:59:54.864Z,17.34
2023-06-27T21:02:21.508Z,17.23
2023-06-27T21:04:48.138Z,17.26
2023-06-27T21:07:14.870Z,17.25
2023-06-27T21:09:41.595Z,17.04
2023-06-27T21:12:08.600Z,17.14
2023-06-27T21:14:35.238Z,17.30
2023-06-27T21:17:01.886Z,17.40
2023-06-27T21:19:28.591Z,17.47
2023-06-27T21:21:55.304Z,17.55
2023-06-27T21:24:21.995Z,17.59
2023-06-27T21:26:48.685Z,17.57
2023-06-27T21:29:15.556Z,17.24
2023-06-27T21:31:42.339Z,17.11
2023-06-27T21:34:09.194Z,17.16
2023-06-27T21:36:36.388Z,17.16
2023-06-27T21:39:03.479Z,17.26
2023-06-27T21:41:30.132Z,17.30
2023-06-27T21:43:56.796Z,17.13
2023-06-27T21:46:24.451Z,17.39
2023-06-27T21:48:56.578Z,17.39
2023-06-27T21:51:26.822Z,17.21
2023-06-27T21:53:54.003Z,17.20
2023-06-27T21:56:21.045Z,17.27
2023-06-27T21:58:47.855Z,17.01
2023-06-27T22:01:14.654Z,16.89
2023-06-27T22:03:41.477Z,17.04
2023-06-27T22:06:09.198Z,16.95
2023-06-27T22:08:35.948Z,16.89
2023-06-27T22:11:02.618Z,17.04
2023-06-27T22:13:29.416Z,16.93
2023-06-27T22:15:56.114Z,16.83
2023-06-27T22:18:22.772Z,16.93
2023-06-27T22:20:49.491Z,17.03
2023-06-27T22:23:16.511Z,17.10
2023-06-27T22:25:43.184Z,17.07
2023-06-27T22:28:10.002Z,17.19
2023-06-27T22:30:36.722Z,17.15
2023-06-27T22:33:03.494Z,16.99
2023-06-27T22:35:30.196Z,17.05
2023-06-27T22:37:56.992Z,17.07
2023-06-27T22:40:29.206Z,16.97
2023-06-27T22:42:56.018Z,17.13
2023-06-27T22:45:22.766Z,17.17
2023-06-27T22:47:49.489Z,17.02
2023-06-27T22:50:16.132Z,17.09
2023-06-27T22:52:42.768Z,17.13
2023-06-27T22:55:09.561Z,16.92
2023-06-27T22:57:36.955Z,17.00
2023-06-27T23:00:04.571Z,16.86
2023-06-27T23:02:31.352Z,16.88
2023-06-27T23:04:58.053Z,16.89
2023-06-27T23:07:24.815Z,16.79
2023-06-27T23:09:51.439Z,17.00
2023-06-27T23:12:18.349Z,17.07
2023-06-27T23:14:44.974Z,16.93
2023-06-27T23:17:12.643Z,17.02
2023-06-27T23:19:40.416Z,16.95
2023-06-27T23:22:13.384Z,16.85
2023-06-27T23:24:40.120Z,16.75
2023-06-27T23:27:06.948Z,16.70
2023-06-27T23:29:37.469Z,16.51
2023-06-27T23:32:06.502Z,16.51
2023-06-27T23:34:33.242Z,16.45
2023-06-27T23:37:00.245Z,16.53
2023-06-27T23:39:26.985Z,16.37
2023-06-27T23:41:53.782Z,16.31
2023-06-27T23:44:20.467Z,16.09
2023-06-27T23:46:47.228Z,16.03
2023-06-27T23:49:14.101Z,16.17
2023-06-27T23:51:40.765Z,16.28
2023-06-27T23:54:07.412Z,16.24
2023-06-27T23:56:34.183Z,16.24
2023-06-27T23:59:00.831Z,16.11
